sensor_id;sensor_type;location;lat;lon;timestamp;temperature;humidity
24638;DHT22;12773;50.162;8.548;2022-09-28T00:01:26;11.40;99.90
24638;DHT22;12773;50.162;8.548;2022-09-28T00:04:13;11.40;99.90
24638;DHT22;12773;50.162;8.548;2022-09-28T00:07:01;11.30;99.90
24638;DHT22;12773;50.162;8.548;2022-09-28T00:09:48;11.30;99.90
24638;DHT22;12773;50.162;8.548;2022-09-28T00:12:35;11.20;99.90
24638;DHT22;12773;50.162;8.548;2022-09-28T00:15:23;11.10;99.90
24638;DHT22;12773;50.162;8.548;2022-09-28T00:18:10;10.80;99.90
24638;DHT22;12773;50.162;8.548;2022-09-28T00:21:18;10.80;99.90
24638;DHT22;12773;50.162;8.548;2022-09-28T00:24:12;10.90;99.90
24638;DHT22;12773;50.162;8.548;2022-09-28T00:27:04;10.90;99.90
24638;DHT22;12773;50.162;8.548;2022-09-28T00:29:51;11.00;99.90
24638;DHT22;12773;50.162;8.548;2022-09-28T00:32:39;11.00;99.90
24638;DHT22;12773;50.162;8.548;2022-09-28T00:35:26;10.80;99.90
24638;DHT22;12773;50.162;8.548;2022-09-28T00:38:13;10.90;99.90
24638;DHT22;12773;50.162;8.548;2022-09-28T00:41:02;10.90;99.90
24638;DHT22;12773;50.162;8.548;2022-09-28T00:43:51;11.00;99.90
24638;DHT22;12773;50.162;8.548;2022-09-28T00:46:39;11.10;99.90
24638;DHT22;12773;50.162;8.548;2022-09-28T00:49:31;11.10;99.90
24638;DHT22;12773;50.162;8.548;2022-09-28T00:52:28;11.10;99.90
24638;DHT22;12773;50.162;8.548;2022-09-28T00:55:16;11.10;99.90
24638;DHT22;12773;50.162;8.548;2022-09-28T00:58:06;11.00;99.90
24638;DHT22;12773;50.162;8.548;2022-09-28T01:00:58;11.00;99.90
24638;DHT22;12773;50.162;8.548;2022-09-28T01:03:46;11.00;99.90
24638;DHT22;12773;50.162;8.548;2022-09-28T01:06:35;11.00;99.90
24638;DHT22;12773;50.162;8.548;2022-09-28T01:09:25;10.80;99.90
24638;DHT22;12773;50.162;8.548;2022-09-28T01:12:14;10.80;99.90
24638;DHT22;12773;50.162;8.548;2022-09-28T01:15:01;10.70;99.90
24638;DHT22;12773;50.162;8.548;2022-09-28T01:20:53;10.70;99.90
24638;DHT22;12773;50.162;8.548;2022-09-28T01:24:01;10.70;99.90
24638;DHT22;12773;50.162;8.548;2022-09-28T01:35:42;10.60;99.90
24638;DHT22;12773;50.162;8.548;2022-09-28T01:38:32;10.60;99.90
24638;DHT22;12773;50.162;8.548;2022-09-28T01:41:21;10.70;99.90
24638;DHT22;12773;50.162;8.548;2022-09-28T01:44:11;10.70;99.90
24638;DHT22;12773;50.162;8.548;2022-09-28T01:47:00;10.90;99.90
24638;DHT22;12773;50.162;8.548;2022-09-28T01:50:02;11.10;99.90
24638;DHT22;12773;50.162;8.548;2022-09-28T01:52:59;11.20;99.90
24638;DHT22;12773;50.162;8.548;2022-09-28T01:55:52;11.00;99.90
24638;DHT22;12773;50.162;8.548;2022-09-28T01:58:42;10.80;99.90
24638;DHT22;12773;50.162;8.548;2022-09-28T02:02:07;10.90;99.90
24638;DHT22;12773;50.162;8.548;2022-09-28T02:04:46;10.70;99.90
24638;DHT22;12773;50.162;8.548;2022-09-28T02:07:47;10.70;99.90
24638;DHT22;12773;50.162;8.548;2022-09-28T02:10:33;10.80;99.90
24638;DHT22;12773;50.162;8.548;2022-09-28T02:13:29;10.80;99.90
24638;DHT22;12773;50.162;8.548;2022-09-28T02:16:24;10.90;99.90
24638;DHT22;12773;50.162;8.548;2022-09-28T02:19:12;11.00;99.90
24638;DHT22;12773;50.162;8.548;2022-09-28T02:25:10;11.00;99.90
24638;DHT22;12773;50.162;8.548;2022-09-28T02:28:00;10.80;99.90
24638;DHT22;12773;50.162;8.548;2022-09-28T02:30:48;10.80;99.90
24638;DHT22;12773;50.162;8.548;2022-09-28T02:33:37;10.70;99.90
24638;DHT22;12773;50.162;8.548;2022-09-28T02:36:26;10.80;99.90
24638;DHT22;12773;50.162;8.548;2022-09-28T02:39:14;10.90;99.90
24638;DHT22;12773;50.162;8.548;2022-09-28T02:42:25;11.00;99.90
24638;DHT22;12773;50.162;8.548;2022-09-28T02:48:32;11.00;99.90
24638;DHT22;12773;50.162;8.548;2022-09-28T02:57:59;11.00;99.90
24638;DHT22;12773;50.162;8.548;2022-09-28T03:00:22;10.90;99.90
24638;DHT22;12773;50.162;8.548;2022-09-28T03:03:35;11.00;99.90
24638;DHT22;12773;50.162;8.548;2022-09-28T03:06:29;11.00;99.90
24638;DHT22;12773;50.162;8.548;2022-09-28T03:09:20;11.00;99.90
24638;DHT22;12773;50.162;8.548;2022-09-28T03:12:09;11.10;99.90
24638;DHT22;12773;50.162;8.548;2022-09-28T03:15:21;11.10;99.90
24638;DHT22;12773;50.162;8.548;2022-09-28T03:18:08;11.10;99.90
24638;DHT22;12773;50.162;8.548;2022-09-28T03:20:56;11.10;99.90
24638;DHT22;12773;50.162;8.548;2022-09-28T03:23:44;11.20;99.90
24638;DHT22;12773;50.162;8.548;2022-09-28T03:26:32;11.20;99.90
24638;DHT22;12773;50.162;8.548;2022-09-28T03:29:19;11.20;99.90
24638;DHT22;12773;50.162;8.548;2022-09-28T03:32:06;11.20;99.90
24638;DHT22;12773;50.162;8.548;2022-09-28T03:34:54;11.30;99.90
24638;DHT22;12773;50.162;8.548;2022-09-28T03:37:41;11.30;99.90
24638;DHT22;12773;50.162;8.548;2022-09-28T03:40:29;11.30;99.90
24638;DHT22;12773;50.162;8.548;2022-09-28T03:43:16;11.30;99.90
24638;DHT22;12773;50.162;8.548;2022-09-28T03:46:03;11.30;99.90
24638;DHT22;12773;50.162;8.548;2022-09-28T03:48:51;11.30;99.90
24638;DHT22;12773;50.162;8.548;2022-09-28T03:51:38;11.30;99.90
24638;DHT22;12773;50.162;8.548;2022-09-28T03:54:25;11.30;99.90
24638;DHT22;12773;50.162;8.548;2022-09-28T03:57:12;11.30;99.90
24638;DHT22;12773;50.162;8.548;2022-09-28T03:59:59;11.30;99.90
24638;DHT22;12773;50.162;8.548;2022-09-28T04:02:47;11.30;99.90
24638;DHT22;12773;50.162;8.548;2022-09-28T04:05:36;11.30;99.90
24638;DHT22;12773;50.162;8.548;2022-09-28T04:08:23;11.30;99.90
24638;DHT22;12773;50.162;8.548;2022-09-28T04:11:11;11.30;99.90
24638;DHT22;12773;50.162;8.548;2022-09-28T04:13:58;11.20;99.90
24638;DHT22;12773;50.162;8.548;2022-09-28T04:16:46;11.20;99.90
24638;DHT22;12773;50.162;8.548;2022-09-28T04:19:33;11.20;99.90
24638;DHT22;12773;50.162;8.548;2022-09-28T04:22:20;11.10;99.90
24638;DHT22;12773;50.162;8.548;2022-09-28T04:25:08;10.90;99.90
24638;DHT22;12773;50.162;8.548;2022-09-28T04:27:55;10.90;99.90
24638;DHT22;12773;50.162;8.548;2022-09-28T04:31:00;10.90;99.90
24638;DHT22;12773;50.162;8.548;2022-09-28T04:33:47;11.10;99.90
24638;DHT22;12773;50.162;8.548;2022-09-28T04:36:34;11.00;99.90
24638;DHT22;12773;50.162;8.548;2022-09-28T04:39:21;11.00;99.90
24638;DHT22;12773;50.162;8.548;2022-09-28T04:42:09;11.00;99.90
24638;DHT22;12773;50.162;8.548;2022-09-28T04:44:56;11.10;99.90
24638;DHT22;12773;50.162;8.548;2022-09-28T04:47:45;11.20;99.90
24638;DHT22;12773;50.162;8.548;2022-09-28T04:50:32;11.20;99.90
24638;DHT22;12773;50.162;8.548;2022-09-28T04:53:19;11.30;99.90
24638;DHT22;12773;50.162;8.548;2022-09-28T04:56:09;11.40;99.90
24638;DHT22;12773;50.162;8.548;2022-09-28T04:58:57;11.40;99.90
24638;DHT22;12773;50.162;8.548;2022-09-28T05:01:44;11.50;99.90
24638;DHT22;12773;50.162;8.548;2022-09-28T05:04:32;11.40;99.90
24638;DHT22;12773;50.162;8.548;2022-09-28T05:07:19;11.30;99.90
24638;DHT22;12773;50.162;8.548;2022-09-28T05:10:07;11.30;99.90
24638;DHT22;12773;50.162;8.548;2022-09-28T05:12:54;11.20;99.90
24638;DHT22;12773;50.162;8.548;2022-09-28T05:15:41;11.00;99.90
24638;DHT22;12773;50.162;8.548;2022-09-28T05:18:28;10.80;99.90
24638;DHT22;12773;50.162;8.548;2022-09-28T05:21:16;10.90;99.90
24638;DHT22;12773;50.162;8.548;2022-09-28T05:24:05;10.90;99.90
24638;DHT22;12773;50.162;8.548;2022-09-28T05:26:52;10.90;99.90
24638;DHT22;12773;50.162;8.548;2022-09-28T05:29:39;10.90;99.90
24638;DHT22;12773;50.162;8.548;2022-09-28T05:32:26;10.90;99.90
24638;DHT22;12773;50.162;8.548;2022-09-28T05:35:13;10.90;99.90
24638;DHT22;12773;50.162;8.548;2022-09-28T05:38:03;10.90;99.90
24638;DHT22;12773;50.162;8.548;2022-09-28T05:40:50;10.90;99.90
24638;DHT22;12773;50.162;8.548;2022-09-28T05:43:38;10.80;99.90
24638;DHT22;12773;50.162;8.548;2022-09-28T05:46:25;10.80;99.90
24638;DHT22;12773;50.162;8.548;2022-09-28T05:49:13;10.70;99.90
24638;DHT22;12773;50.162;8.548;2022-09-28T05:52:00;10.70;99.90
24638;DHT22;12773;50.162;8.548;2022-09-28T05:54:47;10.70;99.90
24638;DHT22;12773;50.162;8.548;2022-09-28T05:57:34;10.70;99.90
24638;DHT22;12773;50.162;8.548;2022-09-28T06:00:21;10.70;99.90
24638;DHT22;12773;50.162;8.548;2022-09-28T06:03:12;10.80;99.90
24638;DHT22;12773;50.162;8.548;2022-09-28T06:06:00;10.80;99.90
24638;DHT22;12773;50.162;8.548;2022-09-28T06:08:47;10.90;99.90
24638;DHT22;12773;50.162;8.548;2022-09-28T06:11:35;10.90;99.90
24638;DHT22;12773;50.162;8.548;2022-09-28T06:14:22;10.90;99.90
24638;DHT22;12773;50.162;8.548;2022-09-28T06:17:09;11.00;99.90
24638;DHT22;12773;50.162;8.548;2022-09-28T06:19:57;11.10;99.90
24638;DHT22;12773;50.162;8.548;2022-09-28T06:22:44;11.20;99.90
24638;DHT22;12773;50.162;8.548;2022-09-28T06:25:32;11.30;99.90
24638;DHT22;12773;50.162;8.548;2022-09-28T06:28:19;11.30;99.90
24638;DHT22;12773;50.162;8.548;2022-09-28T06:31:06;11.40;99.90
24638;DHT22;12773;50.162;8.548;2022-09-28T06:33:53;11.40;99.90
24638;DHT22;12773;50.162;8.548;2022-09-28T06:36:40;11.30;99.90
24638;DHT22;12773;50.162;8.548;2022-09-28T06:39:28;11.20;99.90
24638;DHT22;12773;50.162;8.548;2022-09-28T06:42:15;11.10;99.90
24638;DHT22;12773;50.162;8.548;2022-09-28T06:45:04;11.20;99.90
24638;DHT22;12773;50.162;8.548;2022-09-28T06:47:58;11.20;99.90
24638;DHT22;12773;50.162;8.548;2022-09-28T06:50:46;11.10;99.90
24638;DHT22;12773;50.162;8.548;2022-09-28T06:53:36;11.20;99.90
24638;DHT22;12773;50.162;8.548;2022-09-28T06:56:23;11.00;99.90
24638;DHT22;12773;50.162;8.548;2022-09-28T06:59:12;10.90;99.90
24638;DHT22;12773;50.162;8.548;2022-09-28T07:01:59;11.00;99.90
24638;DHT22;12773;50.162;8.548;2022-09-28T07:04:47;11.20;99.90
24638;DHT22;12773;50.162;8.548;2022-09-28T07:07:34;11.30;99.90
24638;DHT22;12773;50.162;8.548;2022-09-28T07:10:22;11.40;99.90
24638;DHT22;12773;50.162;8.548;2022-09-28T07:13:10;11.60;99.90
24638;DHT22;12773;50.162;8.548;2022-09-28T07:16:00;11.70;99.90
24638;DHT22;12773;50.162;8.548;2022-09-28T07:18:47;11.70;99.90
24638;DHT22;12773;50.162;8.548;2022-09-28T07:21:35;11.90;99.90
24638;DHT22;12773;50.162;8.548;2022-09-28T07:24:22;11.80;99.90
24638;DHT22;12773;50.162;8.548;2022-09-28T07:27:09;11.90;99.90
24638;DHT22;12773;50.162;8.548;2022-09-28T07:29:56;12.10;99.90
24638;DHT22;12773;50.162;8.548;2022-09-28T07:32:45;12.10;99.90
24638;DHT22;12773;50.162;8.548;2022-09-28T07:35:33;12.00;99.90
24638;DHT22;12773;50.162;8.548;2022-09-28T07:38:21;11.90;99.90
24638;DHT22;12773;50.162;8.548;2022-09-28T07:41:08;12.00;99.90
24638;DHT22;12773;50.162;8.548;2022-09-28T07:44:02;12.10;99.90
24638;DHT22;12773;50.162;8.548;2022-09-28T07:46:53;12.30;99.90
24638;DHT22;12773;50.162;8.548;2022-09-28T07:49:41;12.20;99.90
24638;DHT22;12773;50.162;8.548;2022-09-28T07:52:30;12.30;99.90
24638;DHT22;12773;50.162;8.548;2022-09-28T07:55:19;12.40;99.90
24638;DHT22;12773;50.162;8.548;2022-09-28T07:58:06;12.60;99.90
24638;DHT22;12773;50.162;8.548;2022-09-28T08:00:53;12.60;99.90
24638;DHT22;12773;50.162;8.548;2022-09-28T08:03:41;12.50;99.90
24638;DHT22;12773;50.162;8.548;2022-09-28T08:06:33;12.80;99.90
24638;DHT22;12773;50.162;8.548;2022-09-28T08:09:20;12.70;99.90
24638;DHT22;12773;50.162;8.548;2022-09-28T08:12:08;12.60;99.90
24638;DHT22;12773;50.162;8.548;2022-09-28T08:14:55;12.60;99.90
24638;DHT22;12773;50.162;8.548;2022-09-28T08:17:49;12.80;99.90
24638;DHT22;12773;50.162;8.548;2022-09-28T08:20:33;12.90;99.90
24638;DHT22;12773;50.162;8.548;2022-09-28T08:23:38;13.20;99.90
24638;DHT22;12773;50.162;8.548;2022-09-28T08:26:25;13.20;99.90
24638;DHT22;12773;50.162;8.548;2022-09-28T08:29:14;13.00;99.90
24638;DHT22;12773;50.162;8.548;2022-09-28T08:32:02;13.20;99.90
24638;DHT22;12773;50.162;8.548;2022-09-28T08:34:50;13.10;99.90
24638;DHT22;12773;50.162;8.548;2022-09-28T08:37:37;13.00;99.90
24638;DHT22;12773;50.162;8.548;2022-09-28T08:40:25;13.10;99.90
24638;DHT22;12773;50.162;8.548;2022-09-28T08:46:12;13.20;99.90
24638;DHT22;12773;50.162;8.548;2022-09-28T08:49:09;13.30;99.90
24638;DHT22;12773;50.162;8.548;2022-09-28T08:52:19;13.30;99.90
24638;DHT22;12773;50.162;8.548;2022-09-28T08:55:14;13.20;99.90
24638;DHT22;12773;50.162;8.548;2022-09-28T08:58:09;13.10;99.90
24638;DHT22;12773;50.162;8.548;2022-09-28T09:00:57;12.80;99.90
24638;DHT22;12773;50.162;8.548;2022-09-28T09:03:48;12.70;99.90
24638;DHT22;12773;50.162;8.548;2022-09-28T09:09:56;12.80;99.90
24638;DHT22;12773;50.162;8.548;2022-09-28T09:19:15;13.10;99.90
24638;DHT22;12773;50.162;8.548;2022-09-28T09:22:37;13.00;99.90
24638;DHT22;12773;50.162;8.548;2022-09-28T09:25:19;13.20;99.90
24638;DHT22;12773;50.162;8.548;2022-09-28T09:31:39;13.60;99.90
24638;DHT22;12773;50.162;8.548;2022-09-28T09:38:08;13.60;99.90
24638;DHT22;12773;50.162;8.548;2022-09-28T09:44:13;13.50;99.90
24638;DHT22;12773;50.162;8.548;2022-09-28T09:47:04;13.70;99.90
24638;DHT22;12773;50.162;8.548;2022-09-28T09:53:26;13.80;99.90
24638;DHT22;12773;50.162;8.548;2022-09-28T09:56:21;13.80;99.90
24638;DHT22;12773;50.162;8.548;2022-09-28T09:59:13;13.80;99.90
24638;DHT22;12773;50.162;8.548;2022-09-28T10:02:09;14.00;99.90
24638;DHT22;12773;50.162;8.548;2022-09-28T10:11:12;14.50;99.90
24638;DHT22;12773;50.162;8.548;2022-09-28T10:13:59;14.80;99.90
24638;DHT22;12773;50.162;8.548;2022-09-28T10:16:48;14.90;99.90
24638;DHT22;12773;50.162;8.548;2022-09-28T10:19:36;14.80;99.90
24638;DHT22;12773;50.162;8.548;2022-09-28T10:22:25;15.10;99.90
24638;DHT22;12773;50.162;8.548;2022-09-28T10:25:16;15.10;99.90
24638;DHT22;12773;50.162;8.548;2022-09-28T10:28:09;15.20;99.90
24638;DHT22;12773;50.162;8.548;2022-09-28T10:30:59;15.30;99.90
24638;DHT22;12773;50.162;8.548;2022-09-28T10:33:46;15.30;99.90
24638;DHT22;12773;50.162;8.548;2022-09-28T10:36:45;15.40;99.90
24638;DHT22;12773;50.162;8.548;2022-09-28T10:39:35;15.60;99.90
24638;DHT22;12773;50.162;8.548;2022-09-28T10:42:25;15.90;99.90
24638;DHT22;12773;50.162;8.548;2022-09-28T10:45:20;16.00;99.90
24638;DHT22;12773;50.162;8.548;2022-09-28T10:48:21;15.90;99.90
24638;DHT22;12773;50.162;8.548;2022-09-28T10:51:08;15.70;99.90
24638;DHT22;12773;50.162;8.548;2022-09-28T10:54:00;15.60;99.90
24638;DHT22;12773;50.162;8.548;2022-09-28T10:56:49;15.60;99.90
24638;DHT22;12773;50.162;8.548;2022-09-28T10:59:39;15.40;99.90
24638;DHT22;12773;50.162;8.548;2022-09-28T11:02:34;15.40;99.90
24638;DHT22;12773;50.162;8.548;2022-09-28T11:05:24;15.00;99.90
24638;DHT22;12773;50.162;8.548;2022-09-28T11:08:17;15.00;99.90
24638;DHT22;12773;50.162;8.548;2022-09-28T11:11:11;14.90;99.90
24638;DHT22;12773;50.162;8.548;2022-09-28T11:14:00;15.10;99.90
24638;DHT22;12773;50.162;8.548;2022-09-28T11:17:13;15.30;99.90
24638;DHT22;12773;50.162;8.548;2022-09-28T11:19:39;15.20;99.90
24638;DHT22;12773;50.162;8.548;2022-09-28T11:25:25;16.00;99.90
24638;DHT22;12773;50.162;8.548;2022-09-28T11:28:27;15.80;99.90
24638;DHT22;12773;50.162;8.548;2022-09-28T11:31:08;15.60;99.90
24638;DHT22;12773;50.162;8.548;2022-09-28T11:34:14;15.60;99.90
24638;DHT22;12773;50.162;8.548;2022-09-28T11:53:03;15.30;99.90
24638;DHT22;12773;50.162;8.548;2022-09-28T11:55:58;15.50;99.90
24638;DHT22;12773;50.162;8.548;2022-09-28T11:58:52;15.50;99.90
24638;DHT22;12773;50.162;8.548;2022-09-28T12:01:46;15.90;99.90
24638;DHT22;12773;50.162;8.548;2022-09-28T12:04:40;16.00;99.90
24638;DHT22;12773;50.162;8.548;2022-09-28T12:07:30;16.10;99.90
24638;DHT22;12773;50.162;8.548;2022-09-28T12:10:20;16.10;99.90
24638;DHT22;12773;50.162;8.548;2022-09-28T12:13:19;15.80;99.90
24638;DHT22;12773;50.162;8.548;2022-09-28T12:16:23;15.50;99.90
24638;DHT22;12773;50.162;8.548;2022-09-28T12:22:23;15.80;99.90
24638;DHT22;12773;50.162;8.548;2022-09-28T12:25:17;15.90;99.90
24638;DHT22;12773;50.162;8.548;2022-09-28T12:28:07;16.10;99.90
24638;DHT22;12773;50.162;8.548;2022-09-28T12:30:58;16.40;99.90
24638;DHT22;12773;50.162;8.548;2022-09-28T12:33:47;16.00;99.90
24638;DHT22;12773;50.162;8.548;2022-09-28T12:36:48;16.10;99.90
24638;DHT22;12773;50.162;8.548;2022-09-28T12:45:56;16.60;99.90
24638;DHT22;12773;50.162;8.548;2022-09-28T12:49:01;16.40;99.90
24638;DHT22;12773;50.162;8.548;2022-09-28T12:51:53;16.10;99.90
24638;DHT22;12773;50.162;8.548;2022-09-28T12:55:21;16.00;99.90
24638;DHT22;12773;50.162;8.548;2022-09-28T13:04:37;15.60;99.90
24638;DHT22;12773;50.162;8.548;2022-09-28T13:07:27;15.30;99.90
24638;DHT22;12773;50.162;8.548;2022-09-28T13:10:30;15.40;99.90
24638;DHT22;12773;50.162;8.548;2022-09-28T13:13:41;15.40;99.90
24638;DHT22;12773;50.162;8.548;2022-09-28T13:16:41;15.70;99.90
24638;DHT22;12773;50.162;8.548;2022-09-28T13:19:48;16.00;99.90
24638;DHT22;12773;50.162;8.548;2022-09-28T13:25:48;16.60;99.90
24638;DHT22;12773;50.162;8.548;2022-09-28T13:28:33;16.90;99.90
24638;DHT22;12773;50.162;8.548;2022-09-28T13:31:24;16.70;99.90
24638;DHT22;12773;50.162;8.548;2022-09-28T13:34:17;16.30;99.90
24638;DHT22;12773;50.162;8.548;2022-09-28T13:37:18;16.20;99.90
24638;DHT22;12773;50.162;8.548;2022-09-28T13:40:09;15.90;99.90
24638;DHT22;12773;50.162;8.548;2022-09-28T13:43:04;15.60;99.90
24638;DHT22;12773;50.162;8.548;2022-09-28T13:45:51;15.70;99.90
24638;DHT22;12773;50.162;8.548;2022-09-28T13:54:55;15.80;99.90
24638;DHT22;12773;50.162;8.548;2022-09-28T13:57:50;15.40;99.90
24638;DHT22;12773;50.162;8.548;2022-09-28T14:00:51;15.20;99.90
24638;DHT22;12773;50.162;8.548;2022-09-28T14:07:08;15.20;99.90
24638;DHT22;12773;50.162;8.548;2022-09-28T14:10:08;15.00;99.90
24638;DHT22;12773;50.162;8.548;2022-09-28T14:15:39;15.40;99.90
24638;DHT22;12773;50.162;8.548;2022-09-28T14:18:33;15.80;99.90
24638;DHT22;12773;50.162;8.548;2022-09-28T14:21:27;15.90;99.90
24638;DHT22;12773;50.162;8.548;2022-09-28T14:27:12;15.40;99.90
24638;DHT22;12773;50.162;8.548;2022-09-28T14:33:09;15.30;99.90
24638;DHT22;12773;50.162;8.548;2022-09-28T14:35:59;15.20;99.90
24638;DHT22;12773;50.162;8.548;2022-09-28T14:38:49;15.20;99.90
24638;DHT22;12773;50.162;8.548;2022-09-28T14:41:54;15.30;99.90
24638;DHT22;12773;50.162;8.548;2022-09-28T14:48:18;15.50;99.90
24638;DHT22;12773;50.162;8.548;2022-09-28T14:54:20;15.50;99.90
24638;DHT22;12773;50.162;8.548;2022-09-28T14:57:16;15.30;99.90
24638;DHT22;12773;50.162;8.548;2022-09-28T15:00:17;15.20;99.90
24638;DHT22;12773;50.162;8.548;2022-09-28T15:03:04;15.10;99.90
24638;DHT22;12773;50.162;8.548;2022-09-28T15:05:53;15.20;99.90
24638;DHT22;12773;50.162;8.548;2022-09-28T15:08:41;15.40;99.90
24638;DHT22;12773;50.162;8.548;2022-09-28T15:11:28;15.50;99.90
24638;DHT22;12773;50.162;8.548;2022-09-28T15:14:18;15.80;99.90
24638;DHT22;12773;50.162;8.548;2022-09-28T15:17:10;15.90;99.90
24638;DHT22;12773;50.162;8.548;2022-09-28T15:22:58;15.90;99.90
24638;DHT22;12773;50.162;8.548;2022-09-28T15:25:50;15.60;99.90
24638;DHT22;12773;50.162;8.548;2022-09-28T15:28:42;15.50;99.90
24638;DHT22;12773;50.162;8.548;2022-09-28T15:31:26;15.70;99.90
24638;DHT22;12773;50.162;8.548;2022-09-28T15:34:33;15.60;99.90
24638;DHT22;12773;50.162;8.548;2022-09-28T15:37:39;15.40;99.90
24638;DHT22;12773;50.162;8.548;2022-09-28T15:40:29;15.50;99.90
24638;DHT22;12773;50.162;8.548;2022-09-28T15:46:19;15.70;99.90
24638;DHT22;12773;50.162;8.548;2022-09-28T15:49:18;15.50;99.90
24638;DHT22;12773;50.162;8.548;2022-09-28T15:51:56;15.30;99.90
24638;DHT22;12773;50.162;8.548;2022-09-28T15:54:44;15.10;99.90
24638;DHT22;12773;50.162;8.548;2022-09-28T15:57:36;15.10;99.90
24638;DHT22;12773;50.162;8.548;2022-09-28T16:00:26;15.10;99.90
24638;DHT22;12773;50.162;8.548;2022-09-28T16:03:20;15.10;99.90
24638;DHT22;12773;50.162;8.548;2022-09-28T16:06:08;15.10;99.90
24638;DHT22;12773;50.162;8.548;2022-09-28T16:08:56;15.10;99.90
24638;DHT22;12773;50.162;8.548;2022-09-28T16:11:43;15.10;99.90
24638;DHT22;12773;50.162;8.548;2022-09-28T16:14:31;15.10;99.90
24638;DHT22;12773;50.162;8.548;2022-09-28T16:17:26;15.00;99.90
24638;DHT22;12773;50.162;8.548;2022-09-28T16:20:30;15.00;99.90
24638;DHT22;12773;50.162;8.548;2022-09-28T16:23:28;15.00;99.90
24638;DHT22;12773;50.162;8.548;2022-09-28T16:26:25;15.00;99.90
24638;DHT22;12773;50.162;8.548;2022-09-28T16:29:14;14.90;99.90
24638;DHT22;12773;50.162;8.548;2022-09-28T16:31:56;14.90;99.90
24638;DHT22;12773;50.162;8.548;2022-09-28T16:34:48;14.90;99.90
24638;DHT22;12773;50.162;8.548;2022-09-28T16:37:38;14.90;99.90
24638;DHT22;12773;50.162;8.548;2022-09-28T16:40:28;14.80;99.90
24638;DHT22;12773;50.162;8.548;2022-09-28T16:43:21;14.70;99.90
24638;DHT22;12773;50.162;8.548;2022-09-28T16:46:15;14.70;99.90
24638;DHT22;12773;50.162;8.548;2022-09-28T16:49:05;14.80;99.90
24638;DHT22;12773;50.162;8.548;2022-09-28T16:51:52;14.80;99.90
24638;DHT22;12773;50.162;8.548;2022-09-28T16:54:39;14.90;99.90
24638;DHT22;12773;50.162;8.548;2022-09-28T16:57:46;14.90;99.90
24638;DHT22;12773;50.162;8.548;2022-09-28T17:00:36;14.90;99.90
24638;DHT22;12773;50.162;8.548;2022-09-28T17:03:23;15.00;99.90
24638;DHT22;12773;50.162;8.548;2022-09-28T17:06:12;15.00;99.90
24638;DHT22;12773;50.162;8.548;2022-09-28T17:09:00;15.00;99.90
24638;DHT22;12773;50.162;8.548;2022-09-28T17:11:49;15.00;99.90
24638;DHT22;12773;50.162;8.548;2022-09-28T17:14:37;15.00;99.90
24638;DHT22;12773;50.162;8.548;2022-09-28T17:17:25;15.00;99.90
24638;DHT22;12773;50.162;8.548;2022-09-28T17:20:30;15.00;99.90
24638;DHT22;12773;50.162;8.548;2022-09-28T17:23:14;15.00;99.90
24638;DHT22;12773;50.162;8.548;2022-09-28T17:26:04;15.00;99.90
24638;DHT22;12773;50.162;8.548;2022-09-28T17:28:51;15.00;99.90
24638;DHT22;12773;50.162;8.548;2022-09-28T17:31:38;14.90;99.90
24638;DHT22;12773;50.162;8.548;2022-09-28T17:34:26;14.90;99.90
24638;DHT22;12773;50.162;8.548;2022-09-28T17:37:15;14.80;99.90
24638;DHT22;12773;50.162;8.548;2022-09-28T17:40:09;14.80;99.90
24638;DHT22;12773;50.162;8.548;2022-09-28T17:42:50;14.50;99.90
24638;DHT22;12773;50.162;8.548;2022-09-28T17:45:39;14.40;99.90
24638;DHT22;12773;50.162;8.548;2022-09-28T17:48:26;14.20;99.90
24638;DHT22;12773;50.162;8.548;2022-09-28T17:51:14;14.10;99.90
24638;DHT22;12773;50.162;8.548;2022-09-28T17:54:01;14.10;99.90
24638;DHT22;12773;50.162;8.548;2022-09-28T17:56:49;14.10;99.90
24638;DHT22;12773;50.162;8.548;2022-09-28T17:59:36;13.90;99.90
24638;DHT22;12773;50.162;8.548;2022-09-28T18:02:23;13.90;99.90
24638;DHT22;12773;50.162;8.548;2022-09-28T18:05:12;13.90;99.90
24638;DHT22;12773;50.162;8.548;2022-09-28T18:08:04;14.00;99.90
24638;DHT22;12773;50.162;8.548;2022-09-28T18:10:51;14.10;99.90
24638;DHT22;12773;50.162;8.548;2022-09-28T18:13:39;14.10;99.90
24638;DHT22;12773;50.162;8.548;2022-09-28T18:16:27;14.10;99.90
24638;DHT22;12773;50.162;8.548;2022-09-28T18:19:16;14.10;99.90
24638;DHT22;12773;50.162;8.548;2022-09-28T18:22:03;14.10;99.90
24638;DHT22;12773;50.162;8.548;2022-09-28T18:24:50;14.10;99.90
24638;DHT22;12773;50.162;8.548;2022-09-28T18:27:37;14.10;99.90
24638;DHT22;12773;50.162;8.548;2022-09-28T18:30:26;14.00;99.90
24638;DHT22;12773;50.162;8.548;2022-09-28T18:33:13;13.90;99.90
24638;DHT22;12773;50.162;8.548;2022-09-28T18:36:00;13.60;99.90
24638;DHT22;12773;50.162;8.548;2022-09-28T18:38:48;13.50;99.90
24638;DHT22;12773;50.162;8.548;2022-09-28T18:41:36;13.50;99.90
24638;DHT22;12773;50.162;8.548;2022-09-28T18:44:23;13.60;99.90
24638;DHT22;12773;50.162;8.548;2022-09-28T18:47:11;13.70;99.90
24638;DHT22;12773;50.162;8.548;2022-09-28T18:50:00;13.70;99.90
24638;DHT22;12773;50.162;8.548;2022-09-28T18:52:47;13.70;99.90
24638;DHT22;12773;50.162;8.548;2022-09-28T18:55:35;13.70;99.90
24638;DHT22;12773;50.162;8.548;2022-09-28T18:58:24;13.60;99.90
24638;DHT22;12773;50.162;8.548;2022-09-28T19:01:14;13.60;99.90
24638;DHT22;12773;50.162;8.548;2022-09-28T19:04:06;13.50;99.90
24638;DHT22;12773;50.162;8.548;2022-09-28T19:06:55;13.40;99.90
24638;DHT22;12773;50.162;8.548;2022-09-28T19:09:42;13.40;99.90
24638;DHT22;12773;50.162;8.548;2022-09-28T19:12:31;13.40;99.90
24638;DHT22;12773;50.162;8.548;2022-09-28T19:15:18;13.40;99.90
24638;DHT22;12773;50.162;8.548;2022-09-28T19:18:07;13.50;99.90
24638;DHT22;12773;50.162;8.548;2022-09-28T19:20:54;13.50;99.90
24638;DHT22;12773;50.162;8.548;2022-09-28T19:23:42;13.40;99.90
24638;DHT22;12773;50.162;8.548;2022-09-28T19:26:32;13.40;99.90
24638;DHT22;12773;50.162;8.548;2022-09-28T19:29:20;13.30;99.90
24638;DHT22;12773;50.162;8.548;2022-09-28T19:32:09;13.30;99.90
24638;DHT22;12773;50.162;8.548;2022-09-28T19:35:00;13.30;99.90
24638;DHT22;12773;50.162;8.548;2022-09-28T19:37:48;13.40;99.90
24638;DHT22;12773;50.162;8.548;2022-09-28T19:40:36;13.50;99.90
24638;DHT22;12773;50.162;8.548;2022-09-28T19:43:24;13.50;99.90
24638;DHT22;12773;50.162;8.548;2022-09-28T19:46:11;13.50;99.90
24638;DHT22;12773;50.162;8.548;2022-09-28T19:49:05;13.50;99.90
24638;DHT22;12773;50.162;8.548;2022-09-28T19:51:54;13.50;99.90
24638;DHT22;12773;50.162;8.548;2022-09-28T19:54:48;13.50;99.90
24638;DHT22;12773;50.162;8.548;2022-09-28T19:57:40;13.40;99.90
24638;DHT22;12773;50.162;8.548;2022-09-28T20:00:33;13.30;99.90
24638;DHT22;12773;50.162;8.548;2022-09-28T20:03:20;13.30;99.90